首页
METAR-TAF:

METAR-TAF

机场 :

阿比林, 得克萨斯州, 美国

纬度: 32-25-12N, 经度: 099-51-25W, 海拔: 545米

当前天气观测

该预报发布于55分钟前的17:59 UTC
风速21节,风向南转南东,有时为30节阵风
温度 34°C
湿度 47%
气压 1008 hPa
能見度: 16.1公里
散云层高于4100英尺

METAR: KDYS 171759Z 16021G30KT 10SM SCT041 34/21 A2977 RMK AO2A SLP026 57009

时间: 13:54 (18:54 UTC)

预报

该预报发布于2小时和54分钟前的16:00 UTC
预报有效从17日的 16点(UTC)到 18日的 22点(UTC)
风速25节,风向,有时为35节阵风
能见度10公里或以上
散云层高于5000英尺
成为
从 18日的 01点(UTC)到 18日的 02点(UTC)
风速25节,风向东南,有时为35节阵风
能见度10公里或以上
散云层高于8000英尺
成为
从 18日的 06点(UTC)到 18日的 07点(UTC)
风速25节,风向,有时为35节阵风
能见度10公里或以上
多云层高于5000英尺
成为
从 18日的 14点(UTC)到 18日的 15点(UTC)
风速20节,风向,有时为30节阵风
能见度10公里或以上
多云层高于5000英尺

TAF: KDYS 171600Z 1716/1822 17025G35KT 9999 SCT050 QNH2966INS BECMG 1801/1802 14025G35KT 9999 SCT080 QNH2970INS BECMG 1806/1807 17025G35KT 9999 BKN050 QNH2974INS BECMG 1814/1815 17020G30KT 9999 BKN050 QNH2973INS TX36/1721Z TN24/1811Z

超过4000个机场的气象观测和天气预报(METAR&TAF报告)。

可查询的气象台以黄色和红色小点在地图上表示。

将鼠标移到小点上方,可查看气象台名称。

然后点击查看天气观测和预报。

如需切换地图:点击带黑十字的绿色按钮放大地图;点击带横线的绿色按钮缩小地图;或者点击绿色箭头查看邻近地区的地图。


METAR-TAF: